sensor_id;sensor_type;location;lat;lon;timestamp;temperature;humidity
51837;DHT22;38941;53.254;6.600;2022-09-09T00:00:20;15.20;99.90
51837;DHT22;38941;53.254;6.600;2022-09-09T00:02:23;15.20;99.90
51837;DHT22;38941;53.254;6.600;2022-09-09T00:04:28;15.20;99.90
51837;DHT22;38941;53.254;6.600;2022-09-09T00:06:52;15.10;99.90
51837;DHT22;38941;53.254;6.600;2022-09-09T00:09:13;15.10;99.90
51837;DHT22;38941;53.254;6.600;2022-09-09T00:11:24;15.10;99.90
51837;DHT22;38941;53.254;6.600;2022-09-09T00:13:52;15.10;99.90
51837;DHT22;38941;53.254;6.600;2022-09-09T00:16:07;15.10;99.90
51837;DHT22;38941;53.254;6.600;2022-09-09T00:22:30;15.00;99.90
51837;DHT22;38941;53.254;6.600;2022-09-09T00:24:39;15.00;99.90
51837;DHT22;38941;53.254;6.600;2022-09-09T00:26:49;15.00;99.90
51837;DHT22;38941;53.254;6.600;2022-09-09T00:28:55;14.90;99.90
51837;DHT22;38941;53.254;6.600;2022-09-09T00:31:12;14.90;99.90
51837;DHT22;38941;53.254;6.600;2022-09-09T00:33:14;15.00;99.90
51837;DHT22;38941;53.254;6.600;2022-09-09T00:35:22;15.00;99.90
51837;DHT22;38941;53.254;6.600;2022-09-09T00:37:28;15.00;99.90
51837;DHT22;38941;53.254;6.600;2022-09-09T00:39:36;14.90;99.90
51837;DHT22;38941;53.254;6.600;2022-09-09T00:44:20;14.90;99.90
51837;DHT22;38941;53.254;6.600;2022-09-09T00:54:07;14.80;99.90
51837;DHT22;38941;53.254;6.600;2022-09-09T00:56:20;14.80;99.90
51837;DHT22;38941;53.254;6.600;2022-09-09T00:58:23;14.70;99.90
51837;DHT22;38941;53.254;6.600;2022-09-09T01:00:33;14.70;99.90
51837;DHT22;38941;53.254;6.600;2022-09-09T01:02:44;14.80;99.90
51837;DHT22;38941;53.254;6.600;2022-09-09T01:04:49;14.70;99.90
51837;DHT22;38941;53.254;6.600;2022-09-09T01:06:54;14.70;99.90
51837;DHT22;38941;53.254;6.600;2022-09-09T01:09:19;14.50;99.90
51837;DHT22;38941;53.254;6.600;2022-09-09T01:11:30;14.70;99.90
51837;DHT22;38941;53.254;6.600;2022-09-09T01:13:34;14.70;99.90
51837;DHT22;38941;53.254;6.600;2022-09-09T01:15:37;14.70;99.90
51837;DHT22;38941;53.254;6.600;2022-09-09T01:18:07;14.70;99.90
51837;DHT22;38941;53.254;6.600;2022-09-09T01:20:15;14.70;99.90
51837;DHT22;38941;53.254;6.600;2022-09-09T01:27:12;14.60;99.90
51837;DHT22;38941;53.254;6.600;2022-09-09T01:29:18;14.60;99.90
51837;DHT22;38941;53.254;6.600;2022-09-09T01:31:32;14.60;99.90
51837;DHT22;38941;53.254;6.600;2022-09-09T01:33:35;14.60;99.90
51837;DHT22;38941;53.254;6.600;2022-09-09T01:36:08;14.60;99.90
51837;DHT22;38941;53.254;6.600;2022-09-09T01:38:13;14.60;99.90
51837;DHT22;38941;53.254;6.600;2022-09-09T01:40:14;14.60;99.90
51837;DHT22;38941;53.254;6.600;2022-09-09T01:42:16;14.60;99.90
51837;DHT22;38941;53.254;6.600;2022-09-09T01:44:17;14.50;99.90
51837;DHT22;38941;53.254;6.600;2022-09-09T01:46:21;14.50;99.90
51837;DHT22;38941;53.254;6.600;2022-09-09T01:48:23;14.50;99.90
51837;DHT22;38941;53.254;6.600;2022-09-09T01:50:25;14.50;99.90
51837;DHT22;38941;53.254;6.600;2022-09-09T01:52:26;14.50;99.90
51837;DHT22;38941;53.254;6.600;2022-09-09T01:54:29;14.50;99.90
51837;DHT22;38941;53.254;6.600;2022-09-09T02:01:18;14.50;99.90
51837;DHT22;38941;53.254;6.600;2022-09-09T02:03:32;14.50;99.90
51837;DHT22;38941;53.254;6.600;2022-09-09T02:05:37;14.50;99.90
51837;DHT22;38941;53.254;6.600;2022-09-09T02:07:42;14.40;99.90
51837;DHT22;38941;53.254;6.600;2022-09-09T02:09:45;14.50;99.90
51837;DHT22;38941;53.254;6.600;2022-09-09T02:11:49;14.40;99.90
51837;DHT22;38941;53.254;6.600;2022-09-09T02:14:00;14.40;99.90
51837;DHT22;38941;53.254;6.600;2022-09-09T02:16:24;14.40;99.90
51837;DHT22;38941;53.254;6.600;2022-09-09T02:20:46;14.40;99.90
51837;DHT22;38941;53.254;6.600;2022-09-09T02:22:49;14.40;99.90
51837;DHT22;38941;53.254;6.600;2022-09-09T02:24:53;14.50;99.90
51837;DHT22;38941;53.254;6.600;2022-09-09T02:26:57;14.50;99.90
51837;DHT22;38941;53.254;6.600;2022-09-09T02:29:02;14.50;99.90
51837;DHT22;38941;53.254;6.600;2022-09-09T02:31:05;14.50;99.90
51837;DHT22;38941;53.254;6.600;2022-09-09T02:33:07;14.50;99.90
51837;DHT22;38941;53.254;6.600;2022-09-09T02:35:13;14.50;99.90
51837;DHT22;38941;53.254;6.600;2022-09-09T02:37:18;14.50;99.90
51837;DHT22;38941;53.254;6.600;2022-09-09T02:39:19;14.50;99.90
51837;DHT22;38941;53.254;6.600;2022-09-09T02:41:56;14.50;99.90
51837;DHT22;38941;53.254;6.600;2022-09-09T02:43:49;14.50;99.90
51837;DHT22;38941;53.254;6.600;2022-09-09T02:50:25;14.40;99.90
51837;DHT22;38941;53.254;6.600;2022-09-09T02:54:46;14.40;99.90
51837;DHT22;38941;53.254;6.600;2022-09-09T02:56:54;14.40;99.90
51837;DHT22;38941;53.254;6.600;2022-09-09T02:58:56;14.40;99.90
51837;DHT22;38941;53.254;6.600;2022-09-09T03:00:57;14.40;99.90
51837;DHT22;38941;53.254;6.600;2022-09-09T03:02:59;14.50;99.90
51837;DHT22;38941;53.254;6.600;2022-09-09T03:04:59;14.50;99.90
51837;DHT22;38941;53.254;6.600;2022-09-09T03:07:00;14.50;99.90
51837;DHT22;38941;53.254;6.600;2022-09-09T03:09:01;14.50;99.90
51837;DHT22;38941;53.254;6.600;2022-09-09T03:11:03;14.50;99.90
51837;DHT22;38941;53.254;6.600;2022-09-09T03:13:04;14.50;99.90
51837;DHT22;38941;53.254;6.600;2022-09-09T03:15:06;14.50;99.90
51837;DHT22;38941;53.254;6.600;2022-09-09T03:17:07;14.50;99.90
51837;DHT22;38941;53.254;6.600;2022-09-09T03:19:10;14.60;99.90
51837;DHT22;38941;53.254;6.600;2022-09-09T03:21:11;14.50;99.90
51837;DHT22;38941;53.254;6.600;2022-09-09T03:23:11;14.60;99.90
51837;DHT22;38941;53.254;6.600;2022-09-09T03:25:13;14.60;99.90
51837;DHT22;38941;53.254;6.600;2022-09-09T03:27:14;14.60;99.90
51837;DHT22;38941;53.254;6.600;2022-09-09T03:29:15;14.70;99.90
51837;DHT22;38941;53.254;6.600;2022-09-09T03:31:15;14.60;99.90
51837;DHT22;38941;53.254;6.600;2022-09-09T03:33:16;14.70;99.90
51837;DHT22;38941;53.254;6.600;2022-09-09T03:35:18;14.60;99.90
51837;DHT22;38941;53.254;6.600;2022-09-09T03:37:20;14.70;99.90
51837;DHT22;38941;53.254;6.600;2022-09-09T03:39:20;14.70;99.90
51837;DHT22;38941;53.254;6.600;2022-09-09T03:41:22;14.70;99.90
51837;DHT22;38941;53.254;6.600;2022-09-09T03:43:25;14.70;99.90
51837;DHT22;38941;53.254;6.600;2022-09-09T03:45:25;14.70;99.90
51837;DHT22;38941;53.254;6.600;2022-09-09T03:47:26;14.70;99.90
51837;DHT22;38941;53.254;6.600;2022-09-09T03:49:27;14.70;99.90
51837;DHT22;38941;53.254;6.600;2022-09-09T03:51:31;14.70;99.90
51837;DHT22;38941;53.254;6.600;2022-09-09T03:53:31;14.80;99.90
51837;DHT22;38941;53.254;6.600;2022-09-09T03:55:33;14.70;99.90
51837;DHT22;38941;53.254;6.600;2022-09-09T03:57:35;14.70;99.90
51837;DHT22;38941;53.254;6.600;2022-09-09T03:59:36;14.70;99.90
51837;DHT22;38941;53.254;6.600;2022-09-09T04:01:37;14.70;99.90
51837;DHT22;38941;53.254;6.600;2022-09-09T04:03:37;14.70;99.90
51837;DHT22;38941;53.254;6.600;2022-09-09T04:05:41;14.70;99.90
51837;DHT22;38941;53.254;6.600;2022-09-09T04:07:42;14.80;99.90
51837;DHT22;38941;53.254;6.600;2022-09-09T04:09:43;14.80;99.90
51837;DHT22;38941;53.254;6.600;2022-09-09T04:11:44;14.80;99.90
51837;DHT22;38941;53.254;6.600;2022-09-09T04:13:45;14.80;99.90
51837;DHT22;38941;53.254;6.600;2022-09-09T04:15:57;14.80;99.90
51837;DHT22;38941;53.254;6.600;2022-09-09T04:17:58;14.90;99.90
51837;DHT22;38941;53.254;6.600;2022-09-09T04:19:59;14.90;99.90
51837;DHT22;38941;53.254;6.600;2022-09-09T04:22:00;14.90;99.90
51837;DHT22;38941;53.254;6.600;2022-09-09T04:24:01;14.90;99.90
51837;DHT22;38941;53.254;6.600;2022-09-09T04:26:03;14.90;99.90
51837;DHT22;38941;53.254;6.600;2022-09-09T04:28:04;14.90;99.90
51837;DHT22;38941;53.254;6.600;2022-09-09T04:30:05;15.00;99.90
51837;DHT22;38941;53.254;6.600;2022-09-09T04:32:07;15.00;99.90
51837;DHT22;38941;53.254;6.600;2022-09-09T04:34:09;15.00;99.90
51837;DHT22;38941;53.254;6.600;2022-09-09T04:36:09;14.90;99.90
51837;DHT22;38941;53.254;6.600;2022-09-09T04:38:10;15.00;99.90
51837;DHT22;38941;53.254;6.600;2022-09-09T04:40:11;14.90;99.90
51837;DHT22;38941;53.254;6.600;2022-09-09T04:42:12;15.00;99.90
51837;DHT22;38941;53.254;6.600;2022-09-09T04:44:13;15.00;99.90
51837;DHT22;38941;53.254;6.600;2022-09-09T04:46:14;15.00;99.90
51837;DHT22;38941;53.254;6.600;2022-09-09T04:48:15;15.00;99.90
51837;DHT22;38941;53.254;6.600;2022-09-09T04:50:16;14.90;99.90
51837;DHT22;38941;53.254;6.600;2022-09-09T04:52:18;15.00;99.90
51837;DHT22;38941;53.254;6.600;2022-09-09T04:54:18;15.00;99.90
51837;DHT22;38941;53.254;6.600;2022-09-09T04:56:19;15.00;99.90
51837;DHT22;38941;53.254;6.600;2022-09-09T04:58:20;15.00;99.90
51837;DHT22;38941;53.254;6.600;2022-09-09T05:00:23;15.00;99.90
51837;DHT22;38941;53.254;6.600;2022-09-09T05:02:24;15.00;99.90
51837;DHT22;38941;53.254;6.600;2022-09-09T05:04:24;14.90;99.90
51837;DHT22;38941;53.254;6.600;2022-09-09T05:06:25;14.90;99.90
51837;DHT22;38941;53.254;6.600;2022-09-09T05:08:26;14.90;99.90
51837;DHT22;38941;53.254;6.600;2022-09-09T05:10:26;14.90;99.90
51837;DHT22;38941;53.254;6.600;2022-09-09T05:12:27;14.90;99.90
51837;DHT22;38941;53.254;6.600;2022-09-09T05:14:29;14.90;99.90
51837;DHT22;38941;53.254;6.600;2022-09-09T05:16:31;14.90;99.90
51837;DHT22;38941;53.254;6.600;2022-09-09T05:18:31;14.90;99.90
51837;DHT22;38941;53.254;6.600;2022-09-09T05:20:32;14.90;99.90
51837;DHT22;38941;53.254;6.600;2022-09-09T05:22:33;14.80;99.90
51837;DHT22;38941;53.254;6.600;2022-09-09T05:24:35;14.90;99.90
51837;DHT22;38941;53.254;6.600;2022-09-09T05:26:37;14.80;99.90
51837;DHT22;38941;53.254;6.600;2022-09-09T05:28:38;14.80;99.90
51837;DHT22;38941;53.254;6.600;2022-09-09T05:30:38;14.80;99.90
51837;DHT22;38941;53.254;6.600;2022-09-09T05:32:39;14.80;99.90
51837;DHT22;38941;53.254;6.600;2022-09-09T05:34:40;14.80;99.90
51837;DHT22;38941;53.254;6.600;2022-09-09T05:36:41;14.80;99.90
51837;DHT22;38941;53.254;6.600;2022-09-09T05:38:42;14.70;99.90
51837;DHT22;38941;53.254;6.600;2022-09-09T05:40:49;14.80;99.90
51837;DHT22;38941;53.254;6.600;2022-09-09T05:42:50;14.70;99.90
51837;DHT22;38941;53.254;6.600;2022-09-09T05:44:51;14.70;99.90
51837;DHT22;38941;53.254;6.600;2022-09-09T05:46:54;14.70;99.90
51837;DHT22;38941;53.254;6.600;2022-09-09T05:48:55;14.70;99.90
51837;DHT22;38941;53.254;6.600;2022-09-09T05:50:56;14.70;99.90
51837;DHT22;38941;53.254;6.600;2022-09-09T05:52:56;14.50;99.90
51837;DHT22;38941;53.254;6.600;2022-09-09T05:54:59;14.70;99.90
51837;DHT22;38941;53.254;6.600;2022-09-09T05:57:00;14.70;99.90
51837;DHT22;38941;53.254;6.600;2022-09-09T05:59:00;14.80;99.90
51837;DHT22;38941;53.254;6.600;2022-09-09T06:01:16;14.80;99.90
51837;DHT22;38941;53.254;6.600;2022-09-09T06:03:16;14.70;99.90
51837;DHT22;38941;53.254;6.600;2022-09-09T06:05:17;14.70;99.90
51837;DHT22;38941;53.254;6.600;2022-09-09T06:07:19;14.70;99.90
51837;DHT22;38941;53.254;6.600;2022-09-09T06:09:20;14.80;99.90
51837;DHT22;38941;53.254;6.600;2022-09-09T06:11:23;14.80;99.90
51837;DHT22;38941;53.254;6.600;2022-09-09T06:13:24;14.80;99.90
51837;DHT22;38941;53.254;6.600;2022-09-09T06:15:25;14.80;99.90
51837;DHT22;38941;53.254;6.600;2022-09-09T06:17:27;14.80;99.90
51837;DHT22;38941;53.254;6.600;2022-09-09T06:19:28;14.80;99.90
51837;DHT22;38941;53.254;6.600;2022-09-09T06:21:31;14.80;99.90
51837;DHT22;38941;53.254;6.600;2022-09-09T06:23:33;14.80;99.90
51837;DHT22;38941;53.254;6.600;2022-09-09T06:25:36;14.80;99.90
51837;DHT22;38941;53.254;6.600;2022-09-09T06:27:40;14.90;99.90
51837;DHT22;38941;53.254;6.600;2022-09-09T06:29:42;14.90;99.90
51837;DHT22;38941;53.254;6.600;2022-09-09T06:31:43;14.90;99.90
51837;DHT22;38941;53.254;6.600;2022-09-09T06:33:44;14.90;99.90
51837;DHT22;38941;53.254;6.600;2022-09-09T06:35:51;14.90;99.90
51837;DHT22;38941;53.254;6.600;2022-09-09T06:37:53;15.00;99.90
51837;DHT22;38941;53.254;6.600;2022-09-09T06:39:54;15.00;99.90
51837;DHT22;38941;53.254;6.600;2022-09-09T06:41:55;15.00;99.90
51837;DHT22;38941;53.254;6.600;2022-09-09T06:43:56;15.00;99.90
51837;DHT22;38941;53.254;6.600;2022-09-09T06:45:59;15.00;99.90
51837;DHT22;38941;53.254;6.600;2022-09-09T06:48:00;15.00;99.90
51837;DHT22;38941;53.254;6.600;2022-09-09T06:50:01;15.10;99.90
51837;DHT22;38941;53.254;6.600;2022-09-09T06:52:02;15.10;99.90
51837;DHT22;38941;53.254;6.600;2022-09-09T06:54:04;15.10;99.90
51837;DHT22;38941;53.254;6.600;2022-09-09T06:58:11;15.20;99.90
51837;DHT22;38941;53.254;6.600;2022-09-09T07:00:12;15.20;99.90
51837;DHT22;38941;53.254;6.600;2022-09-09T07:02:14;15.20;99.90
51837;DHT22;38941;53.254;6.600;2022-09-09T07:04:15;15.20;99.90
51837;DHT22;38941;53.254;6.600;2022-09-09T07:06:21;15.30;99.90
51837;DHT22;38941;53.254;6.600;2022-09-09T07:08:23;15.30;99.90
51837;DHT22;38941;53.254;6.600;2022-09-09T07:10:25;15.40;99.90
51837;DHT22;38941;53.254;6.600;2022-09-09T07:12:26;15.40;99.90
51837;DHT22;38941;53.254;6.600;2022-09-09T07:14:26;15.50;99.90
51837;DHT22;38941;53.254;6.600;2022-09-09T07:16:28;15.50;99.90
51837;DHT22;38941;53.254;6.600;2022-09-09T07:18:29;15.50;99.90
51837;DHT22;38941;53.254;6.600;2022-09-09T07:20:31;15.60;99.90
51837;DHT22;38941;53.254;6.600;2022-09-09T07:22:32;15.50;99.90
51837;DHT22;38941;53.254;6.600;2022-09-09T07:24:34;15.70;99.90
51837;DHT22;38941;53.254;6.600;2022-09-09T07:26:36;15.60;99.90
51837;DHT22;38941;53.254;6.600;2022-09-09T07:28:37;15.60;99.90
51837;DHT22;38941;53.254;6.600;2022-09-09T07:30:38;15.60;99.90
51837;DHT22;38941;53.254;6.600;2022-09-09T07:32:40;15.60;99.90
51837;DHT22;38941;53.254;6.600;2022-09-09T07:34:41;15.70;99.90
51837;DHT22;38941;53.254;6.600;2022-09-09T07:36:41;15.70;99.90
51837;DHT22;38941;53.254;6.600;2022-09-09T07:38:51;15.80;99.90
51837;DHT22;38941;53.254;6.600;2022-09-09T07:40:52;15.80;99.90
51837;DHT22;38941;53.254;6.600;2022-09-09T07:42:52;15.80;99.90
51837;DHT22;38941;53.254;6.600;2022-09-09T07:44:54;15.90;99.90
51837;DHT22;38941;53.254;6.600;2022-09-09T07:46:55;15.90;99.90
51837;DHT22;38941;53.254;6.600;2022-09-09T07:48:56;15.90;99.90
51837;DHT22;38941;53.254;6.600;2022-09-09T07:51:10;16.00;99.90
51837;DHT22;38941;53.254;6.600;2022-09-09T07:53:12;16.00;99.90
51837;DHT22;38941;53.254;6.600;2022-09-09T07:55:12;16.10;99.90
51837;DHT22;38941;53.254;6.600;2022-09-09T07:57:13;16.20;99.90
51837;DHT22;38941;53.254;6.600;2022-09-09T07:59:16;16.20;99.90
51837;DHT22;38941;53.254;6.600;2022-09-09T08:01:32;16.30;99.90
51837;DHT22;38941;53.254;6.600;2022-09-09T08:03:33;16.40;99.90
51837;DHT22;38941;53.254;6.600;2022-09-09T08:05:34;16.50;99.90
51837;DHT22;38941;53.254;6.600;2022-09-09T08:07:35;16.50;99.90
51837;DHT22;38941;53.254;6.600;2022-09-09T08:09:36;16.60;99.90
51837;DHT22;38941;53.254;6.600;2022-09-09T08:11:38;16.60;99.90
51837;DHT22;38941;53.254;6.600;2022-09-09T08:13:40;16.70;99.90
51837;DHT22;38941;53.254;6.600;2022-09-09T08:15:41;16.70;99.90
51837;DHT22;38941;53.254;6.600;2022-09-09T08:17:43;16.70;99.90
51837;DHT22;38941;53.254;6.600;2022-09-09T08:19:45;16.80;99.90
51837;DHT22;38941;53.254;6.600;2022-09-09T08:21:46;16.90;99.90
51837;DHT22;38941;53.254;6.600;2022-09-09T08:23:47;17.00;99.90
51837;DHT22;38941;53.254;6.600;2022-09-09T08:25:50;17.10;99.90
51837;DHT22;38941;53.254;6.600;2022-09-09T08:27:53;17.20;99.90
51837;DHT22;38941;53.254;6.600;2022-09-09T08:29:53;17.30;99.90
51837;DHT22;38941;53.254;6.600;2022-09-09T08:31:57;16.90;99.90
51837;DHT22;38941;53.254;6.600;2022-09-09T08:33:58;17.40;99.90
51837;DHT22;38941;53.254;6.600;2022-09-09T08:36:00;17.40;99.90
51837;DHT22;38941;53.254;6.600;2022-09-09T08:38:01;17.50;99.90
51837;DHT22;38941;53.254;6.600;2022-09-09T08:40:05;17.50;99.90
51837;DHT22;38941;53.254;6.600;2022-09-09T08:46:41;18.20;99.90
51837;DHT22;38941;53.254;6.600;2022-09-09T08:49:05;18.50;99.90
51837;DHT22;38941;53.254;6.600;2022-09-09T08:51:07;18.80;99.90
51837;DHT22;38941;53.254;6.600;2022-09-09T08:53:17;18.90;99.90
51837;DHT22;38941;53.254;6.600;2022-09-09T08:57:52;18.80;99.90
51837;DHT22;38941;53.254;6.600;2022-09-09T08:59:55;19.00;99.90
51837;DHT22;38941;53.254;6.600;2022-09-09T09:02:03;19.20;99.90
51837;DHT22;38941;53.254;6.600;2022-09-09T09:04:30;19.60;99.90
51837;DHT22;38941;53.254;6.600;2022-09-09T09:06:54;19.90;99.90
51837;DHT22;38941;53.254;6.600;2022-09-09T09:11:02;19.80;99.90
51837;DHT22;38941;53.254;6.600;2022-09-09T09:13:03;19.70;99.90
51837;DHT22;38941;53.254;6.600;2022-09-09T09:15:14;19.80;99.90
51837;DHT22;38941;53.254;6.600;2022-09-09T09:17:19;19.50;99.90
51837;DHT22;38941;53.254;6.600;2022-09-09T09:19:21;19.30;99.90
51837;DHT22;38941;53.254;6.600;2022-09-09T09:21:41;19.00;99.90
51837;DHT22;38941;53.254;6.600;2022-09-09T09:23:51;18.80;99.90
51837;DHT22;38941;53.254;6.600;2022-09-09T09:25:58;18.70;99.90
51837;DHT22;38941;53.254;6.600;2022-09-09T09:28:15;18.60;99.90
51837;DHT22;38941;53.254;6.600;2022-09-09T09:30:23;18.50;99.90
51837;DHT22;38941;53.254;6.600;2022-09-09T09:32:28;18.40;99.90
51837;DHT22;38941;53.254;6.600;2022-09-09T09:34:30;18.50;99.90
51837;DHT22;38941;53.254;6.600;2022-09-09T09:36:39;18.60;99.90
51837;DHT22;38941;53.254;6.600;2022-09-09T09:38:59;18.60;99.90
51837;DHT22;38941;53.254;6.600;2022-09-09T09:41:01;18.60;99.90
51837;DHT22;38941;53.254;6.600;2022-09-09T09:43:03;18.70;99.90
51837;DHT22;38941;53.254;6.600;2022-09-09T09:45:42;18.70;99.90
51837;DHT22;38941;53.254;6.600;2022-09-09T09:47:45;18.70;99.90
51837;DHT22;38941;53.254;6.600;2022-09-09T09:49:59;18.60;99.90
51837;DHT22;38941;53.254;6.600;2022-09-09T09:52:01;18.60;99.90
51837;DHT22;38941;53.254;6.600;2022-09-09T09:56:16;18.60;99.90
51837;DHT22;38941;53.254;6.600;2022-09-09T09:58:17;18.60;99.90
51837;DHT22;38941;53.254;6.600;2022-09-09T10:00:22;18.60;99.90
51837;DHT22;38941;53.254;6.600;2022-09-09T10:02:25;18.80;99.90
51837;DHT22;38941;53.254;6.600;2022-09-09T10:04:27;18.90;99.90
51837;DHT22;38941;53.254;6.600;2022-09-09T10:06:36;19.30;99.90
51837;DHT22;38941;53.254;6.600;2022-09-09T10:08:45;19.50;99.90
51837;DHT22;38941;53.254;6.600;2022-09-09T10:13:46;19.50;99.90
51837;DHT22;38941;53.254;6.600;2022-09-09T10:18:25;19.50;99.90
51837;DHT22;38941;53.254;6.600;2022-09-09T10:33:10;19.60;99.90
51837;DHT22;38941;53.254;6.600;2022-09-09T10:35:29;19.50;99.90
51837;DHT22;38941;53.254;6.600;2022-09-09T10:37:41;19.50;99.90
51837;DHT22;38941;53.254;6.600;2022-09-09T10:39:47;19.40;99.90
51837;DHT22;38941;53.254;6.600;2022-09-09T10:42:12;19.40;99.90
51837;DHT22;38941;53.254;6.600;2022-09-09T10:44:26;19.50;99.90
51837;DHT22;38941;53.254;6.600;2022-09-09T10:46:44;19.40;99.90
51837;DHT22;38941;53.254;6.600;2022-09-09T10:49:02;19.40;99.90
51837;DHT22;38941;53.254;6.600;2022-09-09T10:51:28;19.30;99.90
51837;DHT22;38941;53.254;6.600;2022-09-09T10:55:51;19.30;99.90
51837;DHT22;38941;53.254;6.600;2022-09-09T10:57:58;19.60;99.90
51837;DHT22;38941;53.254;6.600;2022-09-09T11:00:10;19.60;99.30
51837;DHT22;38941;53.254;6.600;2022-09-09T11:02:31;19.50;99.70
51837;DHT22;38941;53.254;6.600;2022-09-09T11:04:40;19.40;99.20
51837;DHT22;38941;53.254;6.600;2022-09-09T11:06:46;19.40;99.60
51837;DHT22;38941;53.254;6.600;2022-09-09T11:08:49;19.50;99.70
51837;DHT22;38941;53.254;6.600;2022-09-09T11:11:03;19.90;99.20
51837;DHT22;38941;53.254;6.600;2022-09-09T11:13:17;20.40;98.50
51837;DHT22;38941;53.254;6.600;2022-09-09T11:16:02;20.70;97.60
51837;DHT22;38941;53.254;6.600;2022-09-09T11:18:10;20.90;97.10
51837;DHT22;38941;53.254;6.600;2022-09-09T11:20:14;20.90;97.20
51837;DHT22;38941;53.254;6.600;2022-09-09T11:22:35;20.90;97.30
51837;DHT22;38941;53.254;6.600;2022-09-09T11:24:41;21.00;96.10
51837;DHT22;38941;53.254;6.600;2022-09-09T11:29:08;21.20;96.10
51837;DHT22;38941;53.254;6.600;2022-09-09T11:38:28;22.60;92.10
51837;DHT22;38941;53.254;6.600;2022-09-09T11:40:30;22.70;93.20
51837;DHT22;38941;53.254;6.600;2022-09-09T11:42:32;22.60;93.80
51837;DHT22;38941;53.254;6.600;2022-09-09T11:44:33;22.60;93.30
51837;DHT22;38941;53.254;6.600;2022-09-09T11:46:36;22.50;93.10
51837;DHT22;38941;53.254;6.600;2022-09-09T11:48:40;22.70;92.70
51837;DHT22;38941;53.254;6.600;2022-09-09T11:50:45;23.00;92.40
51837;DHT22;38941;53.254;6.600;2022-09-09T11:55:28;23.30;91.30
51837;DHT22;38941;53.254;6.600;2022-09-09T11:57:34;23.20;90.40
51837;DHT22;38941;53.254;6.600;2022-09-09T11:59:35;22.90;91.40
51837;DHT22;38941;53.254;6.600;2022-09-09T12:01:42;22.50;90.90
51837;DHT22;38941;53.254;6.600;2022-09-09T12:03:49;22.20;90.70
51837;DHT22;38941;53.254;6.600;2022-09-09T12:05:51;22.00;91.30
51837;DHT22;38941;53.254;6.600;2022-09-09T12:07:56;22.00;91.60
51837;DHT22;38941;53.254;6.600;2022-09-09T12:10:04;22.20;91.30
51837;DHT22;38941;53.254;6.600;2022-09-09T12:14:20;22.80;90.50
51837;DHT22;38941;53.254;6.600;2022-09-09T12:16:34;23.10;90.20
51837;DHT22;38941;53.254;6.600;2022-09-09T12:18:36;22.80;88.70
51837;DHT22;38941;53.254;6.600;2022-09-09T12:20:39;22.50;89.10
51837;DHT22;38941;53.254;6.600;2022-09-09T12:27:20;22.10;89.90
51837;DHT22;38941;53.254;6.600;2022-09-09T12:29:57;22.20;90.20
51837;DHT22;38941;53.254;6.600;2022-09-09T12:32:07;22.20;90.00
51837;DHT22;38941;53.254;6.600;2022-09-09T12:36:37;22.50;89.30
51837;DHT22;38941;53.254;6.600;2022-09-09T12:38:41;22.40;89.30
51837;DHT22;38941;53.254;6.600;2022-09-09T12:40:42;22.20;89.10
51837;DHT22;38941;53.254;6.600;2022-09-09T12:42:42;22.10;88.90
51837;DHT22;38941;53.254;6.600;2022-09-09T12:46:59;21.60;88.10
51837;DHT22;38941;53.254;6.600;2022-09-09T12:49:02;21.50;89.60
51837;DHT22;38941;53.254;6.600;2022-09-09T12:51:05;21.50;89.80
51837;DHT22;38941;53.254;6.600;2022-09-09T12:53:10;21.30;89.60
51837;DHT22;38941;53.254;6.600;2022-09-09T12:55:24;21.30;89.50
51837;DHT22;38941;53.254;6.600;2022-09-09T12:57:35;21.40;89.70
51837;DHT22;38941;53.254;6.600;2022-09-09T12:59:41;21.60;89.80
51837;DHT22;38941;53.254;6.600;2022-09-09T13:01:43;21.80;89.30
51837;DHT22;38941;53.254;6.600;2022-09-09T13:03:44;21.80;89.00
51837;DHT22;38941;53.254;6.600;2022-09-09T13:05:46;21.80;88.80
51837;DHT22;38941;53.254;6.600;2022-09-09T13:07:50;21.80;88.80
51837;DHT22;38941;53.254;6.600;2022-09-09T13:09:51;22.00;88.80
51837;DHT22;38941;53.254;6.600;2022-09-09T13:11:55;22.10;88.50
51837;DHT22;38941;53.254;6.600;2022-09-09T13:13:57;22.20;87.60
51837;DHT22;38941;53.254;6.600;2022-09-09T13:16:00;22.40;87.00
51837;DHT22;38941;53.254;6.600;2022-09-09T13:18:06;22.70;86.90
51837;DHT22;38941;53.254;6.600;2022-09-09T13:20:17;22.90;85.70
51837;DHT22;38941;53.254;6.600;2022-09-09T13:24:32;23.40;84.70
51837;DHT22;38941;53.254;6.600;2022-09-09T13:26:34;23.70;84.10
51837;DHT22;38941;53.254;6.600;2022-09-09T13:28:35;23.80;83.70
51837;DHT22;38941;53.254;6.600;2022-09-09T13:30:37;23.60;83.40
51837;DHT22;38941;53.254;6.600;2022-09-09T13:32:41;23.50;83.50
51837;DHT22;38941;53.254;6.600;2022-09-09T13:34:51;23.20;83.80
51837;DHT22;38941;53.254;6.600;2022-09-09T13:36:55;23.30;83.80
51837;DHT22;38941;53.254;6.600;2022-09-09T13:39:00;23.30;84.20
51837;DHT22;38941;53.254;6.600;2022-09-09T13:41:06;23.20;84.20
51837;DHT22;38941;53.254;6.600;2022-09-09T13:43:20;23.10;84.20
51837;DHT22;38941;53.254;6.600;2022-09-09T13:45:25;23.20;83.50
51837;DHT22;38941;53.254;6.600;2022-09-09T13:47:34;23.40;83.60
51837;DHT22;38941;53.254;6.600;2022-09-09T13:49:36;23.50;81.50
51837;DHT22;38941;53.254;6.600;2022-09-09T13:51:45;23.40;83.00
51837;DHT22;38941;53.254;6.600;2022-09-09T13:53:48;23.20;83.80
51837;DHT22;38941;53.254;6.600;2022-09-09T13:55:49;23.00;83.50
51837;DHT22;38941;53.254;6.600;2022-09-09T13:57:54;22.50;83.40
51837;DHT22;38941;53.254;6.600;2022-09-09T13:59:56;22.20;84.10
51837;DHT22;38941;53.254;6.600;2022-09-09T14:01:56;22.10;85.20
51837;DHT22;38941;53.254;6.600;2022-09-09T14:03:57;21.90;85.40
51837;DHT22;38941;53.254;6.600;2022-09-09T14:05:59;21.90;85.60
51837;DHT22;38941;53.254;6.600;2022-09-09T14:08:00;22.00;86.10
51837;DHT22;38941;53.254;6.600;2022-09-09T14:10:04;22.10;86.80
51837;DHT22;38941;53.254;6.600;2022-09-09T14:12:08;22.50;86.10
51837;DHT22;38941;53.254;6.600;2022-09-09T14:14:09;23.00;84.50
51837;DHT22;38941;53.254;6.600;2022-09-09T14:16:09;23.60;82.50
51837;DHT22;38941;53.254;6.600;2022-09-09T14:18:12;24.20;80.00
51837;DHT22;38941;53.254;6.600;2022-09-09T14:20:14;24.90;76.60
51837;DHT22;38941;53.254;6.600;2022-09-09T14:22:15;25.00;75.60
51837;DHT22;38941;53.254;6.600;2022-09-09T14:24:16;24.50;76.00
51837;DHT22;38941;53.254;6.600;2022-09-09T14:26:17;23.90;77.50
51837;DHT22;38941;53.254;6.600;2022-09-09T14:28:19;23.30;79.30
51837;DHT22;38941;53.254;6.600;2022-09-09T14:30:19;22.90;80.60
51837;DHT22;38941;53.254;6.600;2022-09-09T14:32:20;22.60;81.40
51837;DHT22;38941;53.254;6.600;2022-09-09T14:34:21;22.40;82.00
51837;DHT22;38941;53.254;6.600;2022-09-09T14:36:22;22.40;82.50
51837;DHT22;38941;53.254;6.600;2022-09-09T14:38:24;22.30;82.50
51837;DHT22;38941;53.254;6.600;2022-09-09T14:40:25;22.20;82.80